Pope Air Force Base
KPOB : now visible

Airfield :











YOU CAN JOIN US ON...

 
LOGIN :

Register | Disclaimer

   EN    FR    IT 

 









Legend :    VFR   Marginal VFR   IFR   Intensive IFR   Very Intensive IFR
Visi :
Ceiling :
>= 8 km
>= 3000ft
5 to 8 km
1000 to 3000 ft
1500m to 5 km
500 to 1000 ft
800 to 1500m
200 to 500 ft
< 800m
< 200 ft
Symbols :   Thunderstorms  Fog  Heavy snow  Heavy precipitations  Wind > 20 kt







- Airport Elevation : 217 ft


KPOB - Pope Air Force Base

CURRENT METAR :
  • 220656Z AUTO 24010KT 10SM CLR 27/22 A2996 RMK AO2 SLP146 T02700217 $

EXPIRED METARs :
  • 220556Z AUTO 23008KT 10SM CLR 28/21 A2997 RMK AO2 SLP149 T02780211 10335 20274 58002 $
  • 220456Z AUTO 24008KT 10SM CLR 28/21 A2997 RMK AO2 SLP149 T02830208 403540245 $

TAF TAF KPOB
Valid from the 22 at 01:00 until the 23 at 07:00 UTC


220100Z 2201/2307 26009KT 9999 FEW200 QNH2990INS
BECMG 2216/2217 24012G20KT 9999 FEW070 QNH2989INS
BECMG 2220/2221 21015G20KT 9000 -SHRA BKN060 QNH2988INS
BECMG 2223/2224 20009KT 9999 NSW SCT055 510203 QNH2989INS TX37/2220Z TN24/2211Z
KZDC FIR / North America



MET'MAP, your aeronautical weather chart ! - Copyright ORBIFLY December 2007 - Disclaimer

ORBIFLY MET'MAP TEAM :

Programming & Development : Alexandra Zaïnal
Concept & Development : Baudouin d'Aumeries
Co-Development & Prog : Marc-Olivier Méhu
Technical & hardware support : Manuel Goepfert

Contact : metmap@orbifly.com




SOURCES & CREDITS :

   NOAA       Earth
Advisory